createdAt,value
2018-09-19T00:00:58.531Z,8.60
2018-09-19T00:01:58.762Z,10.80
2018-09-19T00:02:58.992Z,13.30
2018-09-19T00:03:59.222Z,9.60
2018-09-19T00:04:59.453Z,12.10
2018-09-19T00:05:59.681Z,10.20
2018-09-19T00:06:59.915Z,12.10
2018-09-19T00:08:00.145Z,9.90
2018-09-19T00:09:00.363Z,10.10
2018-09-19T00:10:00.594Z,10.70
2018-09-19T00:11:00.823Z,12.70
2018-09-19T00:12:01.052Z,10.90
2018-09-19T00:13:01.285Z,10.00
2018-09-19T00:14:01.510Z,9.20
2018-09-19T00:15:01.744Z,9.30
2018-09-19T00:16:01.972Z,12.50
2018-09-19T00:17:02.208Z,11.20
2018-09-19T00:18:02.430Z,10.60
2018-09-19T00:19:02.704Z,10.60
2018-09-19T00:20:02.903Z,9.90
2018-09-19T00:21:03.115Z,10.80
2018-09-19T00:22:03.344Z,10.70
2018-09-19T00:23:03.573Z,10.40
2018-09-19T00:24:03.801Z,11.30
2018-09-19T00:25:04.038Z,9.90
2018-09-19T00:26:04.263Z,11.60
2018-09-19T00:27:04.541Z,9.30
2018-09-19T00:28:04.767Z,9.80
2018-09-19T00:29:04.998Z,10.40
2018-09-19T00:30:05.227Z,10.70
2018-09-19T00:31:05.460Z,9.60
2018-09-19T00:32:05.685Z,11.10
2018-09-19T00:33:05.918Z,10.60
2018-09-19T00:34:06.148Z,13.90
2018-09-19T00:35:06.383Z,9.10
2018-09-19T00:36:06.617Z,9.90
2018-09-19T00:37:06.840Z,10.50
2018-09-19T00:38:07.067Z,10.10
2018-09-19T00:39:07.305Z,11.80
2018-09-19T00:40:07.534Z,9.90
2018-09-19T00:41:07.756Z,10.30
2018-09-19T00:42:07.986Z,10.50
2018-09-19T00:43:08.217Z,10.80
2018-09-19T00:44:08.446Z,11.00
2018-09-19T00:45:08.674Z,12.50
2018-09-19T00:46:08.906Z,10.90
2018-09-19T00:47:09.135Z,10.50
2018-09-19T00:48:09.365Z,10.40
2018-09-19T00:49:09.593Z,10.10
2018-09-19T00:50:09.825Z,11.60
2018-09-19T00:51:10.053Z,14.30
2018-09-19T00:52:10.283Z,12.30
2018-09-19T00:53:10.515Z,12.30
2018-09-19T00:54:10.744Z,11.10
2018-09-19T00:55:10.971Z,11.90
2018-09-19T00:56:11.203Z,13.50
2018-09-19T00:57:11.433Z,13.30
2018-09-19T00:58:11.659Z,12.00
2018-09-19T00:59:11.891Z,11.50
2018-09-19T01:00:12.120Z,11.20
2018-09-19T01:01:12.346Z,13.30
2018-09-19T01:02:12.574Z,10.60
2018-09-19T01:03:12.806Z,11.70
2018-09-19T01:04:13.034Z,11.10
2018-09-19T01:05:13.267Z,13.10
2018-09-19T01:06:13.496Z,12.00
2018-09-19T01:07:13.723Z,14.70
2018-09-19T01:08:13.950Z,11.10
2018-09-19T01:09:14.178Z,10.30
2018-09-19T01:10:14.407Z,9.90
2018-09-19T01:11:14.638Z,10.50
2018-09-19T01:12:14.868Z,14.40
2018-09-19T01:13:15.103Z,12.00
2018-09-19T01:14:15.329Z,11.00
2018-09-19T01:15:15.559Z,10.90
2018-09-19T01:16:15.788Z,12.90
2018-09-19T01:17:16.017Z,10.40
2018-09-19T01:18:16.246Z,13.00
2018-09-19T01:19:16.475Z,13.10
2018-09-19T01:20:16.705Z,14.60
2018-09-19T01:21:16.937Z,12.00
2018-09-19T01:22:17.164Z,13.20
2018-09-19T01:23:17.393Z,15.60
2018-09-19T01:24:17.623Z,12.40
2018-09-19T01:25:17.854Z,11.20
2018-09-19T01:26:18.081Z,11.80
2018-09-19T01:27:18.312Z,14.20
2018-09-19T01:28:18.544Z,13.00
2018-09-19T01:29:18.769Z,11.90
2018-09-19T01:30:19.001Z,14.90
2018-09-19T01:31:19.231Z,12.90
2018-09-19T01:32:19.459Z,10.80
2018-09-19T01:33:19.692Z,12.10
2018-09-19T01:34:19.920Z,10.80
2018-09-19T01:35:20.146Z,12.10
2018-09-19T01:36:20.381Z,14.50
2018-09-19T01:37:20.613Z,11.10
2018-09-19T01:38:20.840Z,11.60
2018-09-19T01:39:21.069Z,13.40
2018-09-19T01:40:21.299Z,11.30
2018-09-19T01:41:21.525Z,10.40
2018-09-19T01:42:21.757Z,10.50
2018-09-19T01:43:22.003Z,12.70
2018-09-19T01:44:22.213Z,11.70
2018-09-19T01:45:22.442Z,13.20
2018-09-19T01:46:22.671Z,13.50
2018-09-19T01:47:22.899Z,12.60
2018-09-19T01:48:23.129Z,11.20
2018-09-19T01:49:23.363Z,12.20
2018-09-19T01:50:23.589Z,13.80
2018-09-19T01:51:23.819Z,12.90
2018-09-19T01:52:24.048Z,13.70
2018-09-19T01:53:24.282Z,13.80
2018-09-19T01:54:24.510Z,12.50
2018-09-19T01:55:24.740Z,14.90
2018-09-19T01:56:24.969Z,12.80
2018-09-19T01:57:25.200Z,10.70
2018-09-19T01:58:25.430Z,11.20
2018-09-19T01:59:25.657Z,11.40
2018-09-19T02:00:25.939Z,11.60
2018-09-19T02:01:26.117Z,11.40
2018-09-19T02:02:26.348Z,13.30
2018-09-19T02:03:26.582Z,11.00
2018-09-19T02:04:26.807Z,11.70
2018-09-19T02:05:27.037Z,12.00
2018-09-19T02:06:27.269Z,12.80
2018-09-19T02:07:27.495Z,12.70
2018-09-19T02:08:27.727Z,11.00
2018-09-19T02:09:27.958Z,11.00
2018-09-19T02:10:28.184Z,10.50
2018-09-19T02:11:28.411Z,10.50
2018-09-19T02:12:28.645Z,10.70
2018-09-19T02:13:28.876Z,10.80
2018-09-19T02:14:29.105Z,11.40
2018-09-19T02:15:29.334Z,10.70
2018-09-19T02:16:29.563Z,11.70
2018-09-19T02:17:29.793Z,12.10
2018-09-19T02:18:30.022Z,12.10
2018-09-19T02:19:30.251Z,12.30
2018-09-19T02:20:30.480Z,11.20
2018-09-19T02:21:30.711Z,10.60
2018-09-19T02:22:30.944Z,12.40
2018-09-19T02:23:31.169Z,10.50
2018-09-19T02:24:31.396Z,12.00
2018-09-19T02:25:31.628Z,12.00
2018-09-19T02:26:31.857Z,11.40
2018-09-19T02:27:32.085Z,9.90
2018-09-19T02:28:32.371Z,10.10
2018-09-19T02:29:32.544Z,11.40
2018-09-19T02:30:32.777Z,11.40
2018-09-19T02:31:33.002Z,11.30
2018-09-19T02:32:33.236Z,9.60
2018-09-19T02:33:33.463Z,9.90
2018-09-19T02:34:33.710Z,11.80
2018-09-19T02:35:33.924Z,12.00
2018-09-19T02:36:34.158Z,12.10
2018-09-19T02:37:34.399Z,10.70
2018-09-19T02:38:34.620Z,9.50
2018-09-19T02:39:34.847Z,11.50
2018-09-19T02:40:35.081Z,10.80
2018-09-19T02:41:35.306Z,10.40
2018-09-19T02:42:35.537Z,10.20
2018-09-19T02:43:35.763Z,10.30
2018-09-19T02:44:35.997Z,12.10
2018-09-19T02:45:36.218Z,12.80
2018-09-19T02:46:36.448Z,12.80
2018-09-19T02:47:36.679Z,12.00
2018-09-19T02:48:36.912Z,10.50
2018-09-19T02:49:37.138Z,11.30
2018-09-19T02:50:37.366Z,11.30
2018-09-19T02:51:37.598Z,10.40
2018-09-19T02:52:37.825Z,14.30
2018-09-19T02:53:38.057Z,10.80
2018-09-19T02:54:38.284Z,10.40
2018-09-19T02:55:38.513Z,10.90
2018-09-19T02:56:38.740Z,10.70
2018-09-19T02:57:38.972Z,12.20
2018-09-19T02:58:39.202Z,11.60
2018-09-19T02:59:39.447Z,9.70
2018-09-19T03:00:39.661Z,10.40
2018-09-19T03:01:39.889Z,10.30
2018-09-19T03:02:40.118Z,12.00
2018-09-19T03:03:40.349Z,10.30
2018-09-19T03:04:40.577Z,10.40
2018-09-19T03:05:40.808Z,12.40
2018-09-19T03:06:41.034Z,11.30
2018-09-19T03:07:41.267Z,12.20
2018-09-19T03:08:41.492Z,11.60
2018-09-19T03:09:41.722Z,13.40
2018-09-19T03:10:41.950Z,11.10
2018-09-19T03:11:42.181Z,14.80
2018-09-19T03:12:42.411Z,14.40
2018-09-19T03:13:42.640Z,10.60
2018-09-19T03:14:42.869Z,13.90
2018-09-19T03:15:43.098Z,11.20
2018-09-19T03:16:43.329Z,11.80
2018-09-19T03:17:43.837Z,11.30
2018-09-19T03:18:43.784Z,11.50
2018-09-19T03:19:44.014Z,16.90
2018-09-19T03:20:44.244Z,10.40
2018-09-19T03:21:44.476Z,9.60
2018-09-19T03:22:44.704Z,11.30
2018-09-19T03:23:44.933Z,11.80
2018-09-19T03:24:45.171Z,13.50
2018-09-19T03:25:45.392Z,10.50
2018-09-19T03:26:45.624Z,13.80
2018-09-19T03:27:45.854Z,12.40
2018-09-19T03:28:46.080Z,11.70
2018-09-19T03:29:46.314Z,10.80
2018-09-19T03:30:46.543Z,11.00
2018-09-19T03:31:46.771Z,11.80
2018-09-19T03:32:47.026Z,11.30
2018-09-19T03:33:47.221Z,12.00
2018-09-19T03:34:47.447Z,11.70
2018-09-19T03:35:47.676Z,11.70
2018-09-19T03:36:47.906Z,13.90
2018-09-19T03:37:48.134Z,14.20
2018-09-19T03:38:48.365Z,14.60
2018-09-19T03:39:48.593Z,12.70
2018-09-19T03:40:48.826Z,11.80
2018-09-19T03:41:49.055Z,11.50
2018-09-19T03:42:49.282Z,15.10
2018-09-19T03:43:49.513Z,11.30
2018-09-19T03:44:49.769Z,12.10
2018-09-19T03:45:49.978Z,12.00
2018-09-19T03:46:50.203Z,13.40
2018-09-19T03:47:50.455Z,12.00
2018-09-19T03:48:50.660Z,13.00
2018-09-19T03:49:50.895Z,10.70
2018-09-19T03:50:51.120Z,11.50
2018-09-19T03:51:51.352Z,11.70
2018-09-19T03:52:51.580Z,12.00
2018-09-19T03:53:51.817Z,15.00
2018-09-19T03:54:52.038Z,11.60
2018-09-19T03:55:52.269Z,14.50
2018-09-19T03:56:52.511Z,13.40
2018-09-19T03:57:52.730Z,12.50
2018-09-19T03:58:52.961Z,13.20
2018-09-19T03:59:53.190Z,12.80
2018-09-19T04:00:53.418Z,12.40
2018-09-19T04:01:53.651Z,14.70
2018-09-19T04:02:53.882Z,11.90
2018-09-19T04:03:54.119Z,11.60
2018-09-19T04:04:54.346Z,14.10
2018-09-19T04:05:54.570Z,11.40
2018-09-19T04:06:54.801Z,13.20
2018-09-19T04:07:55.042Z,14.20
2018-09-19T04:08:55.258Z,13.10
2018-09-19T04:09:55.487Z,11.60
2018-09-19T04:10:55.714Z,13.10
2018-09-19T04:11:55.954Z,17.60
2018-09-19T04:12:56.182Z,12.00
2018-09-19T04:13:56.408Z,14.30
2018-09-19T04:14:56.638Z,13.00
2018-09-19T04:15:56.862Z,14.40
2018-09-19T04:16:57.092Z,12.00
2018-09-19T04:17:57.480Z,13.20
2018-09-19T04:18:57.550Z,13.00
2018-09-19T04:19:57.781Z,12.40
2018-09-19T04:20:58.007Z,14.80
2018-09-19T04:21:58.286Z,11.40
2018-09-19T04:22:58.470Z,13.80
2018-09-19T04:23:58.698Z,12.30
2018-09-19T04:24:58.928Z,13.80
2018-09-19T04:25:59.156Z,12.80
2018-09-19T04:26:59.383Z,13.80
2018-09-19T04:27:59.617Z,13.00
2018-09-19T04:28:59.844Z,11.80
2018-09-19T04:30:00.081Z,13.60
2018-09-19T04:31:00.308Z,13.40
2018-09-19T04:32:00.539Z,14.30
2018-09-19T04:33:00.762Z,15.50
2018-09-19T04:34:00.993Z,13.10
2018-09-19T04:35:01.220Z,12.80
2018-09-19T04:36:01.453Z,13.00
2018-09-19T04:37:01.683Z,13.70
2018-09-19T04:38:01.912Z,12.90
2018-09-19T04:39:02.151Z,15.10
2018-09-19T04:40:02.374Z,12.30
2018-09-19T04:41:02.600Z,14.30
2018-09-19T04:42:02.828Z,14.50
2018-09-19T04:43:03.061Z,12.90
2018-09-19T04:44:03.287Z,11.70
2018-09-19T04:45:03.544Z,12.30
2018-09-19T04:46:03.747Z,11.90
2018-09-19T04:47:03.976Z,12.30
2018-09-19T04:48:04.205Z,14.20
2018-09-19T04:49:04.436Z,11.90
2018-09-19T04:50:04.669Z,14.10
2018-09-19T04:51:04.898Z,12.20
2018-09-19T04:52:05.138Z,12.80
2018-09-19T04:53:05.357Z,13.50
2018-09-19T04:54:05.585Z,13.20
2018-09-19T04:55:05.821Z,15.90
2018-09-19T04:56:06.048Z,13.30
2018-09-19T04:57:06.277Z,16.70
2018-09-19T04:58:06.503Z,14.30
2018-09-19T04:59:06.735Z,13.10
2018-09-19T05:00:06.967Z,12.40
2018-09-19T05:01:07.241Z,16.40
2018-09-19T05:02:07.428Z,14.60
2018-09-19T05:03:07.653Z,13.30
2018-09-19T05:04:07.889Z,12.70
2018-09-19T05:05:08.114Z,12.30
2018-09-19T05:06:08.345Z,14.20
2018-09-19T05:07:08.579Z,14.30
2018-09-19T05:08:08.804Z,15.90
2018-09-19T05:09:09.036Z,15.00
2018-09-19T05:10:09.267Z,13.00
2018-09-19T05:11:09.500Z,13.20
2018-09-19T05:12:09.726Z,18.20
2018-09-19T05:13:09.959Z,15.60
2018-09-19T05:14:10.187Z,13.80
2018-09-19T05:15:10.416Z,14.00
2018-09-19T05:16:10.665Z,14.90
2018-09-19T05:17:10.878Z,13.50
2018-09-19T05:18:11.104Z,14.80
2018-09-19T05:19:11.344Z,14.10
2018-09-19T05:20:11.575Z,14.20
2018-09-19T05:21:11.802Z,13.50
2018-09-19T05:22:12.026Z,14.70
2018-09-19T05:23:12.257Z,14.30
2018-09-19T05:24:12.487Z,14.60
2018-09-19T05:25:12.720Z,12.20
2018-09-19T05:26:12.958Z,12.10
2018-09-19T05:27:13.177Z,13.00
2018-09-19T05:28:13.409Z,15.60
2018-09-19T05:29:13.645Z,13.70
2018-09-19T05:30:13.870Z,13.00
2018-09-19T05:31:14.099Z,11.90
2018-09-19T05:32:14.318Z,14.60
2018-09-19T05:33:14.547Z,14.40
2018-09-19T05:34:14.779Z,13.00
2018-09-19T05:35:15.006Z,13.40
2018-09-19T05:36:15.236Z,15.50
2018-09-19T05:37:15.462Z,14.50
2018-09-19T05:38:15.692Z,15.00
2018-09-19T05:39:15.925Z,19.20
2018-09-19T05:40:16.153Z,14.10
2018-09-19T05:41:16.383Z,11.70
2018-09-19T05:42:16.616Z,16.30
2018-09-19T05:43:16.848Z,11.70
2018-09-19T05:44:17.073Z,14.50
2018-09-19T05:45:17.303Z,13.30
2018-09-19T05:46:17.565Z,12.80
2018-09-19T05:47:17.764Z,12.70
2018-09-19T05:48:17.996Z,10.90
2018-09-19T05:49:18.231Z,13.70
2018-09-19T05:50:18.455Z,12.10
2018-09-19T05:51:18.690Z,12.90
2018-09-19T05:52:18.919Z,10.50
2018-09-19T05:53:19.149Z,11.90
2018-09-19T05:54:19.426Z,13.10
2018-09-19T05:55:19.613Z,12.00
2018-09-19T05:56:19.840Z,11.70
2018-09-19T05:57:20.072Z,11.90
2018-09-19T05:58:20.303Z,11.10
2018-09-19T05:59:20.541Z,10.50
2018-09-19T06:00:20.762Z,13.90
2018-09-19T06:01:20.999Z,12.70
2018-09-19T06:02:21.226Z,10.80
2018-09-19T06:03:21.457Z,13.30
2018-09-19T06:04:21.688Z,10.40
2018-09-19T06:05:21.920Z,10.80
2018-09-19T06:06:22.152Z,11.10
2018-09-19T06:07:22.386Z,10.60
2018-09-19T06:08:22.618Z,13.70
2018-09-19T06:09:22.852Z,11.50
2018-09-19T06:10:23.080Z,12.50
2018-09-19T06:11:23.310Z,12.30
2018-09-19T06:12:23.543Z,10.80
2018-09-19T06:13:23.774Z,10.90
2018-09-19T06:14:24.006Z,11.50
2018-09-19T06:15:24.239Z,12.90
2018-09-19T06:16:24.470Z,11.40
2018-09-19T06:17:24.702Z,12.00
2018-09-19T06:18:24.930Z,11.30
2018-09-19T06:19:25.163Z,11.70
2018-09-19T06:20:25.396Z,12.10
2018-09-19T06:21:25.622Z,10.80
2018-09-19T06:22:25.865Z,9.50
2018-09-19T06:23:26.103Z,11.60
2018-09-19T06:24:26.325Z,11.70
2018-09-19T06:25:26.556Z,11.70
2018-09-19T06:26:26.789Z,11.10
2018-09-19T06:27:27.018Z,13.80
2018-09-19T06:28:27.254Z,10.10
2018-09-19T06:29:27.485Z,10.00
2018-09-19T06:30:27.718Z,11.60
2018-09-19T06:31:27.945Z,9.80
2018-09-19T06:32:28.185Z,10.40
2018-09-19T06:33:28.425Z,10.70
2018-09-19T06:34:28.655Z,11.30
2018-09-19T06:35:28.878Z,10.40
2018-09-19T06:36:29.108Z,11.60
2018-09-19T06:37:29.345Z,11.30
2018-09-19T06:38:29.631Z,10.50
2018-09-19T06:39:29.822Z,12.60
2018-09-19T06:40:30.059Z,11.10
2018-09-19T06:41:30.272Z,10.00
2018-09-19T06:42:30.501Z,14.90
2018-09-19T06:43:30.733Z,15.30
2018-09-19T06:44:30.969Z,11.10
2018-09-19T06:45:31.229Z,11.10
2018-09-19T06:46:31.429Z,10.50
2018-09-19T06:47:31.662Z,13.80
2018-09-19T06:48:31.895Z,10.90
2018-09-19T06:49:32.122Z,11.90
2018-09-19T06:50:32.357Z,12.20
2018-09-19T06:51:32.585Z,12.70
2018-09-19T06:52:32.959Z,13.10
2018-09-19T06:53:33.048Z,13.90
2018-09-19T06:54:33.281Z,13.90
2018-09-19T06:55:33.520Z,13.40
2018-09-19T06:56:33.750Z,11.60
2018-09-19T06:57:33.985Z,15.00
2018-09-19T06:58:34.215Z,15.90
2018-09-19T06:59:34.492Z,11.90
2018-09-19T07:00:34.684Z,12.20
2018-09-19T07:01:34.922Z,14.20
2018-09-19T07:02:35.145Z,14.20
2018-09-19T07:03:35.378Z,11.00
2018-09-19T07:04:35.623Z,12.60
2018-09-19T07:05:35.883Z,12.70
2018-09-19T07:06:36.067Z,12.70
2018-09-19T07:07:36.297Z,12.20
2018-09-19T07:08:36.528Z,12.50
2018-09-19T07:09:36.761Z,13.60
2018-09-19T07:10:37.057Z,11.50
2018-09-19T07:11:37.316Z,12.50
2018-09-19T07:12:37.457Z,11.50
2018-09-19T07:13:37.689Z,10.60
2018-09-19T07:14:37.930Z,10.80
2018-09-19T07:15:38.158Z,12.40
2018-09-19T07:16:38.379Z,11.50
2018-09-19T07:17:38.606Z,15.40
2018-09-19T07:18:38.839Z,11.90
2018-09-19T07:19:39.088Z,13.10
2018-09-19T07:20:39.304Z,11.90
2018-09-19T07:21:39.537Z,12.20
2018-09-19T07:22:39.776Z,11.30
2018-09-19T07:23:40.055Z,13.00
2018-09-19T07:24:40.239Z,11.50
2018-09-19T07:25:40.467Z,12.80
2018-09-19T07:26:40.699Z,12.50
2018-09-19T07:27:40.935Z,12.00
2018-09-19T07:28:41.165Z,11.10
2018-09-19T07:29:41.397Z,13.00
2018-09-19T07:30:41.625Z,13.90
2018-09-19T07:31:41.859Z,12.70
2018-09-19T07:32:42.089Z,13.70
2018-09-19T07:33:42.319Z,12.70
2018-09-19T07:34:42.580Z,14.40
2018-09-19T07:35:42.788Z,12.20
2018-09-19T07:36:43.018Z,11.90
2018-09-19T07:37:43.257Z,12.40
2018-09-19T07:38:43.481Z,11.30
2018-09-19T07:39:43.713Z,12.60
2018-09-19T07:40:43.946Z,11.00
2018-09-19T07:41:44.178Z,11.60
2018-09-19T07:42:44.414Z,11.60
2018-09-19T07:43:44.643Z,12.80
2018-09-19T07:44:44.872Z,14.80
2018-09-19T07:45:45.107Z,11.30
2018-09-19T07:46:45.419Z,10.70
2018-09-19T07:47:45.570Z,13.20
2018-09-19T07:48:45.803Z,11.80
2018-09-19T07:49:46.044Z,14.90
2018-09-19T07:50:46.269Z,12.40
2018-09-19T07:51:46.499Z,11.30
2018-09-19T07:52:46.732Z,11.60
2018-09-19T07:53:46.967Z,11.00
2018-09-19T07:54:47.283Z,15.90
2018-09-19T07:55:47.433Z,11.80
2018-09-19T07:56:47.678Z,12.70
2018-09-19T07:57:47.897Z,13.00
2018-09-19T07:58:48.131Z,13.10
2018-09-19T07:59:48.363Z,11.80
2018-09-19T08:00:48.752Z,12.10
2018-09-19T08:01:48.823Z,12.50
2018-09-19T08:02:49.058Z,13.00
2018-09-19T08:03:49.287Z,16.20
2018-09-19T08:04:49.520Z,11.20
2018-09-19T08:05:49.754Z,12.90
2018-09-19T08:06:49.986Z,14.20
2018-09-19T08:07:50.224Z,13.00
2018-09-19T08:08:50.457Z,14.30
2018-09-19T08:09:50.687Z,12.40
2018-09-19T08:10:50.919Z,11.30
2018-09-19T08:11:51.152Z,12.00
2018-09-19T08:12:51.382Z,11.80
2018-09-19T08:13:51.615Z,12.00
2018-09-19T08:14:51.850Z,10.70
2018-09-19T08:15:52.092Z,12.90
2018-09-19T08:16:52.324Z,12.90
2018-09-19T08:17:52.554Z,10.70
2018-09-19T08:18:52.784Z,11.80
2018-09-19T08:19:53.016Z,10.20
2018-09-19T08:20:53.249Z,10.50
2018-09-19T08:21:53.483Z,10.80
2018-09-19T08:22:53.719Z,11.60
2018-09-19T08:23:53.952Z,12.90
2018-09-19T08:24:54.221Z,13.70
2018-09-19T08:25:54.454Z,11.80
2018-09-19T08:26:54.696Z,12.40
2018-09-19T08:27:54.924Z,11.80
2018-09-19T08:28:55.161Z,10.00
2018-09-19T08:29:55.394Z,11.50
2018-09-19T08:30:55.626Z,14.20
2018-09-19T08:31:55.867Z,13.00
2018-09-19T08:32:56.094Z,12.10
2018-09-19T08:33:56.330Z,11.30
2018-09-19T08:34:56.558Z,14.20
2018-09-19T08:35:56.794Z,9.60
2018-09-19T08:36:57.026Z,10.80
2018-09-19T08:37:57.259Z,13.20
2018-09-19T08:38:57.493Z,9.90
2018-09-19T08:39:57.730Z,12.30
2018-09-19T08:40:57.960Z,10.60
2018-09-19T08:41:58.184Z,9.60
2018-09-19T08:42:58.429Z,13.20
2018-09-19T08:43:58.659Z,13.00
2018-09-19T08:44:58.893Z,14.30
2018-09-19T08:45:59.133Z,11.70
2018-09-19T08:46:59.363Z,12.40
2018-09-19T08:47:59.598Z,12.50
2018-09-19T08:48:59.830Z,11.10
2018-09-19T08:50:00.068Z,9.60
2018-09-19T08:51:00.299Z,10.10
2018-09-19T08:52:00.531Z,10.70
2018-09-19T08:53:00.764Z,9.70
2018-09-19T08:54:01.002Z,13.20
2018-09-19T08:55:01.234Z,9.90
2018-09-19T08:56:01.469Z,12.70
2018-09-19T08:57:01.760Z,9.00
2018-09-19T08:58:01.937Z,10.80
2018-09-19T08:59:02.175Z,12.40
2018-09-19T09:00:02.408Z,12.60
2018-09-19T09:01:02.642Z,9.50
2018-09-19T09:02:02.878Z,9.80
2018-09-19T09:03:03.110Z,9.00
2018-09-19T09:04:03.347Z,11.80
2018-09-19T09:05:03.586Z,9.50
2018-09-19T09:06:03.815Z,11.70
2018-09-19T09:07:04.047Z,9.40
2018-09-19T09:08:04.284Z,11.80
2018-09-19T09:09:04.519Z,10.90
2018-09-19T09:10:04.754Z,9.30
2018-09-19T09:11:04.989Z,11.10
2018-09-19T09:12:05.225Z,13.60
2018-09-19T09:13:05.458Z,10.60
2018-09-19T09:14:05.692Z,8.40
2018-09-19T09:15:05.924Z,9.40
2018-09-19T09:16:06.157Z,11.20
2018-09-19T09:17:06.392Z,11.20
2018-09-19T09:18:06.626Z,15.40
2018-09-19T09:19:06.862Z,10.50
2018-09-19T09:20:07.103Z,14.00
2018-09-19T09:21:07.332Z,13.10
2018-09-19T09:22:07.568Z,12.30
2018-09-19T09:23:07.853Z,11.30
2018-09-19T09:24:08.035Z,10.50
2018-09-19T09:25:08.291Z,9.30
2018-09-19T09:26:08.563Z,9.30
2018-09-19T09:27:08.838Z,10.70
2018-09-19T09:28:08.974Z,8.70
2018-09-19T09:29:09.206Z,8.10
2018-09-19T09:30:09.441Z,10.90
2018-09-19T09:31:09.745Z,12.00
2018-09-19T09:32:09.909Z,10.10
2018-09-19T09:33:10.149Z,8.60
2018-09-19T09:34:10.440Z,11.50
2018-09-19T09:35:10.611Z,10.20
2018-09-19T09:36:10.845Z,8.70
2018-09-19T09:37:11.083Z,7.10
2018-09-19T09:38:11.318Z,8.00
2018-09-19T09:39:11.550Z,8.10
2018-09-19T09:40:11.786Z,7.80
2018-09-19T09:41:12.020Z,9.10
2018-09-19T09:42:12.257Z,7.80
2018-09-19T09:43:12.490Z,8.90
2018-09-19T09:44:12.729Z,9.70
2018-09-19T09:45:12.962Z,8.40
2018-09-19T09:46:13.194Z,8.70
2018-09-19T09:47:13.430Z,7.70
2018-09-19T09:48:13.665Z,7.00
2018-09-19T09:49:13.900Z,8.60
2018-09-19T09:50:14.180Z,8.60
2018-09-19T09:51:14.373Z,7.40
2018-09-19T09:52:14.600Z,9.00
2018-09-19T09:53:14.877Z,6.20
2018-09-19T09:54:15.071Z,9.80
2018-09-19T09:55:15.370Z,8.20
2018-09-19T09:56:15.541Z,9.70
2018-09-19T09:57:15.780Z,7.30
2018-09-19T09:58:16.012Z,7.40
2018-09-19T09:59:16.262Z,10.10
2018-09-19T10:00:16.484Z,8.90
2018-09-19T10:01:16.718Z,5.80
2018-09-19T10:02:16.954Z,7.90
2018-09-19T10:03:17.187Z,7.20
2018-09-19T10:04:17.422Z,10.30
2018-09-19T10:05:17.691Z,8.40
2018-09-19T10:06:17.921Z,7.90
2018-09-19T10:07:18.132Z,8.10
2018-09-19T10:08:18.404Z,5.90
2018-09-19T10:09:18.599Z,7.50
2018-09-19T10:10:18.835Z,7.10
2018-09-19T10:11:19.069Z,7.70
2018-09-19T10:12:19.303Z,8.60
2018-09-19T10:13:19.538Z,9.00
2018-09-19T10:14:19.775Z,5.90
2018-09-19T10:15:20.011Z,7.30
2018-09-19T10:16:20.242Z,8.00
2018-09-19T10:17:20.477Z,6.50
2018-09-19T10:18:20.714Z,5.00
2018-09-19T10:19:20.953Z,7.80
2018-09-19T10:20:21.186Z,6.50
2018-09-19T10:21:21.420Z,6.50
2018-09-19T10:22:21.657Z,7.30
2018-09-19T10:23:21.894Z,6.30
2018-09-19T10:24:22.133Z,7.20
2018-09-19T10:25:22.363Z,7.20
2018-09-19T10:26:22.601Z,8.30
2018-09-19T10:27:22.840Z,5.60
2018-09-19T10:28:23.072Z,6.30
2018-09-19T10:29:23.319Z,5.50
2018-09-19T10:30:23.545Z,7.60
2018-09-19T10:31:23.782Z,7.60
2018-09-19T10:32:24.019Z,7.40
2018-09-19T10:33:24.253Z,5.90
2018-09-19T10:34:24.490Z,8.60
2018-09-19T10:35:24.766Z,6.40
2018-09-19T10:36:24.963Z,6.40
2018-09-19T10:37:25.199Z,5.50
2018-09-19T10:38:25.435Z,5.20
2018-09-19T10:39:25.668Z,8.40
2018-09-19T10:40:25.903Z,5.50
2018-09-19T10:41:26.140Z,4.90
2018-09-19T10:42:26.375Z,5.10
2018-09-19T10:43:26.612Z,5.10
2018-09-19T10:44:26.848Z,4.60
2018-09-19T10:45:27.084Z,6.00
2018-09-19T10:46:27.317Z,7.00
2018-09-19T10:47:27.552Z,6.80
2018-09-19T10:48:27.793Z,6.00
2018-09-19T10:49:28.063Z,5.90
2018-09-19T10:50:28.271Z,4.60
2018-09-19T10:51:28.503Z,6.90
2018-09-19T10:52:28.739Z,7.00
2018-09-19T10:53:28.973Z,5.00
2018-09-19T10:54:29.209Z,4.10
2018-09-19T10:55:29.449Z,5.00
2018-09-19T10:56:29.681Z,5.20
2018-09-19T10:57:29.929Z,6.00
2018-09-19T10:58:30.154Z,4.70
2018-09-19T10:59:30.388Z,4.20
2018-09-19T11:00:30.624Z,5.30
2018-09-19T11:01:30.858Z,4.30
2018-09-19T11:02:31.095Z,5.60
2018-09-19T11:03:31.333Z,4.40
2018-09-19T11:04:31.577Z,5.30
2018-09-19T11:05:31.804Z,5.40
2018-09-19T11:06:32.049Z,7.60
2018-09-19T11:07:32.278Z,4.80
2018-09-19T11:08:32.516Z,3.20
2018-09-19T11:09:32.750Z,4.90
2018-09-19T11:10:32.985Z,4.80
2018-09-19T11:11:33.224Z,3.70
2018-09-19T11:12:33.458Z,6.20
2018-09-19T11:13:33.695Z,4.50
2018-09-19T11:14:33.931Z,6.10
2018-09-19T11:15:34.166Z,3.70
2018-09-19T11:16:34.401Z,4.10
2018-09-19T11:17:34.637Z,3.30
2018-09-19T11:18:34.875Z,4.50
2018-09-19T11:19:35.110Z,3.80
2018-09-19T11:20:35.347Z,4.40
2018-09-19T11:21:35.584Z,4.20
2018-09-19T11:22:35.818Z,3.20
2018-09-19T11:23:36.055Z,3.00
2018-09-19T11:24:36.295Z,3.60
2018-09-19T11:25:36.532Z,3.10
2018-09-19T11:26:36.762Z,3.10
2018-09-19T11:27:37.000Z,3.20
2018-09-19T11:28:37.235Z,3.40
2018-09-19T11:29:37.470Z,4.70
2018-09-19T11:30:37.707Z,2.80
2018-09-19T11:31:37.945Z,5.30
2018-09-19T11:32:38.179Z,3.30
2018-09-19T11:33:38.479Z,3.90
2018-09-19T11:34:38.652Z,4.00
2018-09-19T11:35:38.888Z,4.20
2018-09-19T11:36:39.124Z,2.90
2018-09-19T11:37:39.361Z,3.70
2018-09-19T11:38:39.597Z,3.70
2018-09-19T11:39:39.838Z,3.60
2018-09-19T11:40:40.064Z,3.50
2018-09-19T11:41:40.304Z,3.70
2018-09-19T11:42:40.542Z,4.10
2018-09-19T11:43:40.777Z,5.00
2018-09-19T11:44:41.013Z,3.00
2018-09-19T11:45:41.249Z,3.50
2018-09-19T11:46:41.486Z,3.50
2018-09-19T11:47:41.721Z,4.60
2018-09-19T11:48:42.009Z,3.40
2018-09-19T11:49:42.194Z,5.00
2018-09-19T11:50:42.430Z,2.70
2018-09-19T11:51:42.667Z,5.10
2018-09-19T11:52:42.904Z,3.00
2018-09-19T11:53:43.140Z,3.30
2018-09-19T11:54:43.375Z,3.50
2018-09-19T11:55:43.615Z,4.40
2018-09-19T11:56:43.847Z,3.60
2018-09-19T11:57:44.085Z,4.60
2018-09-19T11:58:44.319Z,4.50
2018-09-19T11:59:44.559Z,3.20
2018-09-19T12:00:44.793Z,5.50
2018-09-19T12:01:45.030Z,3.40
2018-09-19T12:02:45.267Z,5.70
2018-09-19T12:03:45.503Z,3.30
2018-09-19T12:04:45.739Z,4.00
2018-09-19T12:05:45.975Z,3.80
2018-09-19T12:06:46.211Z,4.30
2018-09-19T12:07:46.446Z,4.10
2018-09-19T12:08:46.684Z,3.80
2018-09-19T12:09:46.919Z,4.40
2018-09-19T12:10:47.159Z,3.10
2018-09-19T12:11:47.397Z,3.50
2018-09-19T12:12:47.629Z,3.40
2018-09-19T12:13:47.868Z,4.10
2018-09-19T12:14:48.102Z,5.30
2018-09-19T12:15:48.339Z,3.50
2018-09-19T12:16:48.575Z,5.30
2018-09-19T12:17:48.812Z,3.20
2018-09-19T12:18:49.050Z,4.20
2018-09-19T12:19:49.287Z,4.50
2018-09-19T12:20:49.524Z,4.30
2018-09-19T12:21:49.761Z,3.80
2018-09-19T12:22:50.001Z,4.20
2018-09-19T12:23:50.232Z,4.80
2018-09-19T12:24:50.469Z,5.30
2018-09-19T12:25:50.704Z,3.30
2018-09-19T12:26:50.940Z,3.30
2018-09-19T12:27:51.175Z,4.90
2018-09-19T12:28:51.412Z,3.30
2018-09-19T12:29:51.649Z,3.30
2018-09-19T12:30:51.885Z,5.90
2018-09-19T12:31:52.122Z,3.40
2018-09-19T12:32:52.358Z,4.70
2018-09-19T12:33:52.609Z,3.50
2018-09-19T12:34:52.833Z,4.30
2018-09-19T12:35:53.064Z,4.30
2018-09-19T12:36:53.300Z,4.90
2018-09-19T12:37:53.541Z,3.70
2018-09-19T12:38:53.784Z,3.70
2018-09-19T12:39:54.024Z,5.00
2018-09-19T12:40:54.258Z,4.90
2018-09-19T12:41:54.498Z,3.20
2018-09-19T12:42:54.737Z,4.50
2018-09-19T12:43:54.975Z,4.30
2018-09-19T12:44:55.211Z,4.00
2018-09-19T12:45:55.449Z,4.10
2018-09-19T12:46:55.682Z,3.40
2018-09-19T12:47:55.917Z,3.40
2018-09-19T12:48:56.157Z,7.00
2018-09-19T12:49:56.394Z,4.50
2018-09-19T12:50:56.630Z,4.80
2018-09-19T12:51:56.876Z,4.70
2018-09-19T12:52:57.104Z,4.20
2018-09-19T12:53:57.339Z,5.30
2018-09-19T12:54:57.577Z,5.30
2018-09-19T12:55:57.812Z,4.50
2018-09-19T12:56:58.053Z,3.80
2018-09-19T12:57:58.292Z,4.50
2018-09-19T12:58:58.526Z,5.50
2018-09-19T12:59:58.765Z,2.80
2018-09-19T13:00:59.002Z,4.30
2018-09-19T13:01:59.236Z,4.30
2018-09-19T13:02:59.475Z,3.30
2018-09-19T13:03:59.716Z,6.30